Time;durP1;ratioP1;P1;durP2;ratioP2;P2;SDS_P1;SDS_P2;PMS_P1;PMS_P2;Temp;Humidity;BMP_temperature;BMP_pressure;BME280_temperature;BME280_humidity;BME280_pressure;Samples;Min_cycle;Max_cycle;Signal;HPM_P1;HPM_P2
2022/05/12 00:00:28;;;;;;;5.83;4.17;;;;;;;14.69;100.00;99693.38;5073002;28;20178;-72
2022/05/12 00:02:54;;;;;;;5.80;3.73;;;;;;;14.69;100.00;99687.09;5072524;28;20227;-72
2022/05/12 00:05:21;;;;;;;4.07;3.73;;;;;;;14.63;100.00;99692.06;5072549;28;20722;-72
2022/05/12 00:07:47;;;;;;;5.13;4.00;;;;;;;14.64;100.00;99687.38;5072349;28;20171;-72
2022/05/12 00:10:16;;;;;;;8.07;4.40;;;;;;;14.61;100.00;99701.81;5072353;28;20166;-72
2022/05/12 00:12:42;;;;;;;5.17;4.00;;;;;;;14.56;100.00;99720.16;5072054;28;20630;-72
2022/05/12 00:15:12;;;;;;;6.53;4.40;;;;;;;14.55;100.00;99740.56;5072318;28;20170;-72
2022/05/12 00:17:38;;;;;;;3.87;3.47;;;;;;;14.54;100.00;99763.72;5072142;28;20634;-73
2022/05/12 00:20:05;;;;;;;5.20;4.07;;;;;;;14.50;100.00;99762.03;5072252;28;20251;-72
2022/05/12 00:22:30;;;;;;;5.00;4.07;;;;;;;14.46;100.00;99759.19;5072264;28;20174;-72
2022/05/12 00:24:55;;;;;;;4.33;3.63;;;;;;;14.45;100.00;99745.78;5072450;28;20527;-72
2022/05/12 00:27:20;;;;;;;6.20;4.70;;;;;;;14.49;100.00;99750.25;5071801;28;20171;-72
2022/05/12 00:29:46;;;;;;;5.50;4.27;;;;;;;14.44;100.00;99750.50;5071818;28;20171;-73
2022/05/12 00:32:11;;;;;;;5.93;4.10;;;;;;;14.43;100.00;99767.31;5071992;28;20174;-73
2022/05/12 00:34:37;;;;;;;3.70;2.80;;;;;;;14.33;100.00;99776.09;5072046;28;20271;-72
2022/05/12 00:37:02;;;;;;;6.27;4.60;;;;;;;14.27;100.00;99768.09;5071758;28;20185;-73
2022/05/12 00:39:28;;;;;;;1.67;1.57;;;;;;;14.19;100.00;99762.78;5071674;28;20171;-73
2022/05/12 00:41:53;;;;;;;9.80;4.83;;;;;;;14.19;100.00;99760.84;5071809;28;20175;-72
2022/05/12 00:44:18;;;;;;;5.70;5.17;;;;;;;14.19;100.00;99762.78;5071463;28;20182;-72
2022/05/12 00:46:49;;;;;;;5.80;5.27;;;;;;;14.23;100.00;99777.41;5071827;28;20202;-73
2022/05/12 00:49:25;;;;;;;6.10;5.10;;;;;;;14.20;100.00;99789.91;5071532;28;20163;-73
2022/05/12 00:52:16;;;;;;;5.90;3.90;;;;;;;14.15;100.00;99770.91;5071498;28;20269;-73
2022/05/12 00:54:47;;;;;;;9.70;4.57;;;;;;;14.07;100.00;99771.09;5065271;28;20191;-73
2022/05/12 00:57:16;;;;;;;6.20;5.60;;;;;;;14.00;100.00;99766.97;5071343;28;20278;-73
2022/05/12 00:59:43;;;;;;;7.03;4.40;;;;;;;13.93;100.00;99771.50;5070059;28;20561;-73
2022/05/12 01:02:14;;;;;;;6.67;5.53;;;;;;;13.88;100.00;99756.03;5071413;28;20170;-72
2022/05/12 01:04:41;;;;;;;4.80;3.83;;;;;;;13.85;100.00;99761.44;5071771;28;20179;-72
2022/05/12 01:07:07;;;;;;;4.47;3.00;;;;;;;13.85;100.00;99775.19;5071020;28;20194;-73
2022/05/12 01:09:32;;;;;;;4.87;2.70;;;;;;;13.85;100.00;99775.19;5070956;28;20182;-72
2022/05/12 01:11:58;;;;;;;6.30;4.47;;;;;;;13.85;100.00;99773.22;5071075;28;20171;-72
2022/05/12 01:14:23;;;;;;;5.20;3.47;;;;;;;13.82;100.00;99776.69;5069807;28;20182;-72
2022/05/12 01:16:54;;;;;;;2.93;2.60;;;;;;;13.83;100.00;99780.22;5071044;28;20176;-72
2022/05/12 01:19:31;;;;;;;4.63;4.23;;;;;;;13.80;100.00;99773.50;5070960;28;20194;-72
2022/05/12 01:21:57;;;;;;;3.13;2.60;;;;;;;13.75;100.00;99768.25;5070925;28;20673;-73
2022/05/12 01:24:31;;;;;;;6.13;3.63;;;;;;;13.77;100.00;99784.38;5067624;28;20232;-73
2022/05/12 01:27:18;;;;;;;4.77;4.00;;;;;;;13.72;100.00;99798.31;5069738;28;20185;-73
2022/05/12 01:29:42;;;;;;;4.90;1.33;;;;;;;13.69;100.00;99792.38;5070324;28;20179;-72
2022/05/12 01:32:07;;;;;;;2.63;2.43;;;;;;;13.70;100.00;99796.72;5070774;28;20193;-72
2022/05/12 01:34:33;;;;;;;3.07;2.20;;;;;;;13.70;100.00;99809.66;5070737;28;20637;-73
2022/05/12 01:36:58;;;;;;;3.13;1.80;;;;;;;13.72;100.00;99810.09;5070418;28;20206;-73
2022/05/12 01:39:23;;;;;;;1.47;1.37;;;;;;;13.70;100.00;99795.94;5070558;28;20171;-73
2022/05/12 01:41:49;;;;;;;0.70;0.70;;;;;;;13.70;100.00;99818.69;5071067;28;20642;-72
2022/05/12 01:44:14;;;;;;;2.27;2.07;;;;;;;13.70;100.00;99823.38;5074863;28;20535;-72
2022/05/12 01:46:39;;;;;;;2.50;2.00;;;;;;;13.66;100.00;99825.25;5080679;28;20202;-72
2022/05/12 01:49:05;;;;;;;3.77;2.27;;;;;;;13.66;100.00;99833.47;5070874;28;20182;-72
2022/05/12 01:51:33;;;;;;;1.03;0.80;;;;;;;13.64;100.00;99828.34;5071987;28;20175;-72
2022/05/12 01:53:58;;;;;;;1.10;1.07;;;;;;;13.62;100.00;99832.56;5070908;28;20180;-73
2022/05/12 01:56:23;;;;;;;3.20;1.60;;;;;;;13.60;100.00;99832.13;5070909;28;20210;-72
2022/05/12 01:58:48;;;;;;;2.27;1.87;;;;;;;13.60;100.00;99841.16;5070674;28;20634;-72
2022/05/12 02:01:14;;;;;;;2.07;1.60;;;;;;;13.61;100.00;99837.25;5070961;28;20194;-72
2022/05/12 02:03:39;;;;;;;2.70;1.20;;;;;;;13.65;100.00;99854.63;5070688;28;20175;-72
2022/05/12 02:06:04;;;;;;;1.53;1.43;;;;;;;13.69;100.00;99852.78;5070945;28;20220;-72
2022/05/12 02:08:30;;;;;;;3.10;2.80;;;;;;;13.68;100.00;99853.13;5070442;28;20205;-72
2022/05/12 02:10:56;;;;;;;2.40;1.70;;;;;;;13.71;100.00;99855.19;5070526;28;20171;-72
2022/05/12 02:13:25;;;;;;;3.43;2.93;;;;;;;13.74;100.00;99862.72;5070426;28;20633;-72
2022/05/12 02:15:51;;;;;;;1.80;1.60;;;;;;;13.76;100.00;99871.44;5070441;28;20198;-72
2022/05/12 02:18:19;;;;;;;1.43;1.33;;;;;;;13.77;100.00;99878.53;5069368;28;20532;-72
2022/05/12 02:20:45;;;;;;;2.13;1.30;;;;;;;13.77;100.00;99895.00;5070475;28;20699;-72
2022/05/12 02:23:10;;;;;;;3.23;1.53;;;;;;;13.77;100.00;99889.50;5070452;28;20253;-72
2022/05/12 02:25:36;;;;;;;3.07;2.30;;;;;;;13.76;100.00;99909.06;5070310;28;20170;-72
2022/05/12 02:28:01;;;;;;;10.50;2.57;;;;;;;13.73;100.00;99918.78;5070086;28;20246;-72
2022/05/12 02:30:29;;;;;;;2.90;2.60;;;;;;;13.67;100.00;99923.72;5070162;28;20174;-72
2022/05/12 02:32:55;;;;;;;3.60;2.13;;;;;;;13.61;100.00;99927.06;5070346;28;20175;-72
2022/05/12 02:35:21;;;;;;;1.67;1.57;;;;;;;13.55;100.00;99942.13;5073525;28;20550;-72
2022/05/12 02:37:47;;;;;;;1.03;1.03;;;;;;;13.46;100.00;99950.50;5073939;28;20233;-72
2022/05/12 02:40:15;;;;;;;1.37;0.93;;;;;;;13.32;99.34;99980.22;5074277;28;20273;-72
2022/05/12 02:42:41;;;;;;;0.60;0.60;;;;;;;13.17;92.57;99970.66;5074445;28;20175;-72
2022/05/12 02:45:07;;;;;;;1.30;0.60;;;;;;;12.97;90.50;99972.31;5074135;28;20320;-72
2022/05/12 02:47:32;;;;;;;1.10;0.53;;;;;;;12.82;87.35;99992.16;5074193;28;20493;-72
2022/05/12 02:49:58;;;;;;;0.87;0.50;;;;;;;12.63;88.01;100000.09;5074098;28;20171;-72
2022/05/12 02:52:23;;;;;;;0.13;0.13;;;;;;;12.44;88.75;99997.78;5073980;28;20166;-72
2022/05/12 02:54:49;;;;;;;1.27;0.40;;;;;;;12.35;90.20;100019.81;5073983;28;20236;-72
2022/05/12 02:57:14;;;;;;;1.17;0.80;;;;;;;12.21;91.13;100028.28;5073744;28;20198;-72
2022/05/12 02:59:40;;;;;;;0.47;0.43;;;;;;;12.08;90.16;100032.06;5072551;28;20187;-72
2022/05/12 03:02:05;;;;;;;1.67;0.60;;;;;;;11.99;91.27;100044.97;5073943;28;20208;-72
2022/05/12 03:04:31;;;;;;;0.70;0.37;;;;;;;11.89;89.78;100048.13;5073892;28;20788;-72
2022/05/12 03:06:56;;;;;;;0.27;0.27;;;;;;;11.81;90.51;100065.38;5073668;28;20531;-73
2022/05/12 03:09:21;;;;;;;0.40;0.40;;;;;;;11.76;89.86;100077.28;5073737;28;20183;-72
2022/05/12 03:11:48;;;;;;;0.60;0.40;;;;;;;11.69;90.33;100076.16;5073622;28;20182;-72
2022/05/12 03:14:14;;;;;;;0.80;0.80;;;;;;;11.60;91.98;100078.97;5073650;28;20257;-72
2022/05/12 03:16:39;;;;;;;0.20;0.20;;;;;;;11.50;92.89;100074.63;5073424;28;20289;-73
2022/05/12 03:19:04;;;;;;;0.60;0.60;;;;;;;11.50;92.89;100084.78;5073342;28;20227;-72
2022/05/12 03:21:30;;;;;;;1.63;0.70;;;;;;;11.42;92.91;100091.06;5073894;28;20593;-73
2022/05/12 03:23:56;;;;;;;0.97;0.63;;;;;;;11.37;93.42;100096.72;5073350;28;20166;-72
2022/05/12 03:26:22;;;;;;;2.80;1.07;;;;;;;11.29;93.43;100106.56;5073397;28;20174;-72
2022/05/12 03:28:48;;;;;;;0.90;0.73;;;;;;;11.26;93.39;100110.72;5073241;28;20182;-72
2022/05/12 03:31:13;;;;;;;1.70;0.40;;;;;;;11.22;93.37;100103.50;5073068;28;20182;-72
2022/05/12 03:33:39;;;;;;;1.13;0.80;;;;;;;11.16;94.11;100115.72;5073283;28;20175;-72
2022/05/12 03:36:06;;;;;;;1.30;0.43;;;;;;;11.11;93.63;100113.16;5073222;28;20229;-72
2022/05/12 03:38:32;;;;;;;0.60;0.50;;;;;;;11.09;91.85;100118.94;5072948;28;20167;-71
2022/05/12 03:40:58;;;;;;;1.37;0.60;;;;;;;11.05;92.11;100131.66;5071872;28;20181;-72
2022/05/12 03:46:08;;;;;;;1.33;0.77;;;;;;;10.97;94.81;100146.09;5072282;28;20573;-72
2022/05/12 03:48:38;;;;;;;2.13;0.60;;;;;;;10.93;94.87;100154.16;5073287;28;20174;-72
2022/05/12 03:51:04;;;;;;;1.53;1.43;;;;;;;10.94;94.22;100165.91;5072916;28;20430;-72
2022/05/12 03:53:30;;;;;;;0.93;0.60;;;;;;;10.89;95.42;100172.34;5072897;28;20205;-72
2022/05/12 03:55:56;;;;;;;1.37;0.80;;;;;;;10.85;95.72;100179.56;5072807;28;20190;-72
2022/05/12 03:58:22;;;;;;;0.70;0.60;;;;;;;10.84;95.90;100177.13;5072612;28;20177;-72
2022/05/12 04:00:49;;;;;;;0.77;0.57;;;;;;;10.84;95.04;100177.94;5072686;28;20174;-72
2022/05/12 04:03:15;;;;;;;1.00;0.50;;;;;;;10.88;94.01;100184.38;5072703;28;20194;-72
2022/05/12 04:05:40;;;;;;;3.30;0.70;;;;;;;10.89;94.13;100196.13;5072835;28;20630;-72
2022/05/12 04:08:06;;;;;;;0.33;0.33;;;;;;;10.90;94.19;100200.47;5072498;28;20228;-72
2022/05/12 04:10:32;;;;;;;0.97;0.50;;;;;;;10.91;94.60;100215.75;5072568;28;20174;-72
2022/05/12 04:12:58;;;;;;;0.67;0.67;;;;;;;10.90;94.90;100217.66;5072528;28;20177;-72
2022/05/12 04:15:23;;;;;;;1.57;0.97;;;;;;;10.89;95.59;100221.53;5072327;28;20205;-72
2022/05/12 04:18:00;;;;;;;2.00;0.83;;;;;;;10.88;95.79;100233.59;5072176;28;20170;-72
2022/05/12 04:20:28;;;;;;;0.43;0.30;;;;;;;10.89;95.53;100226.19;5072518;28;20288;-72
2022/05/12 04:22:54;;;;;;;1.30;0.40;;;;;;;10.89;95.26;100237.94;5072226;28;20814;-72
2022/05/12 04:25:20;;;;;;;0.60;0.37;;;;;;;10.91;95.26;100238.41;5072289;28;20203;-72
2022/05/12 04:27:46;;;;;;;0.77;0.47;;;;;;;10.90;95.48;100244.19;5072110;28;20166;-72
2022/05/12 04:30:14;;;;;;;2.23;0.80;;;;;;;10.92;96.18;100245.47;5071997;28;20527;-72
2022/05/12 04:32:40;;;;;;;0.47;0.33;;;;;;;10.93;96.62;100246.28;5072207;28;20645;-72
2022/05/12 04:35:14;;;;;;;1.60;0.90;;;;;;;10.94;97.05;100248.69;5070715;28;20571;-72
2022/05/12 04:37:54;;;;;;;0.77;0.50;;;;;;;10.92;97.19;100250.94;5071882;28;20651;-72
2022/05/12 04:40:26;;;;;;;1.57;0.70;;;;;;;10.89;96.89;100254.31;5072081;28;20178;-72
2022/05/12 04:42:54;;;;;;;1.60;0.60;;;;;;;10.89;97.28;100267.19;5072397;28;20178;-73
2022/05/12 04:45:21;;;;;;;0.80;0.50;;;;;;;10.89;97.99;100259.78;5071982;28;20211;-72
2022/05/12 04:47:47;;;;;;;0.37;0.37;;;;;;;10.88;97.33;100268.31;5071628;28;20476;-72
2022/05/12 04:50:21;;;;;;;0.83;0.50;;;;;;;10.89;97.71;100281.66;5071576;28;20669;-72
2022/05/12 04:52:47;;;;;;;1.13;0.30;;;;;;;10.87;97.65;100286.63;5071680;28;20179;-72
2022/05/12 04:55:13;;;;;;;1.33;0.70;;;;;;;10.88;97.06;100284.72;5071527;28;20189;-72
2022/05/12 04:57:44;;;;;;;1.23;0.57;;;;;;;10.92;96.48;100294.69;5071388;28;20183;-72
2022/05/12 05:00:17;;;;;;;2.07;0.40;;;;;;;10.95;96.86;100304.16;5071925;28;20228;-72
2022/05/12 05:02:43;;;;;;;1.63;0.77;;;;;;;10.97;96.60;100301.91;5071565;28;20292;-72
2022/05/12 05:05:09;;;;;;;0.57;0.37;;;;;;;11.01;96.29;100313.84;5071532;28;20182;-72
2022/05/12 05:07:35;;;;;;;0.10;0.00;;;;;;;11.00;95.62;100314.97;5071157;28;20189;-72
2022/05/12 05:10:00;;;;;;;0.43;0.43;;;;;;;11.02;95.55;100315.47;5071347;28;20525;-72
2022/05/12 05:12:26;;;;;;;0.30;0.30;;;;;;;11.04;95.36;100324.16;5071357;28;20599;-72
2022/05/12 05:14:52;;;;;;;1.63;0.70;;;;;;;11.08;94.76;100336.06;5071346;28;20179;-72
2022/05/12 05:17:17;;;;;;;1.80;0.33;;;;;;;11.07;94.29;100342.66;5071013;28;20202;-73
2022/05/12 05:19:42;;;;;;;0.70;0.60;;;;;;;11.10;93.50;100347.47;5071382;28;20188;-72
2022/05/12 05:22:08;;;;;;;0.70;0.60;;;;;;;11.14;93.25;100355.84;5071208;28;20266;-73
2022/05/12 05:24:34;;;;;;;1.17;0.60;;;;;;;11.17;92.62;100356.03;5071053;28;20190;-73
2022/05/12 05:27:00;;;;;;;0.70;0.57;;;;;;;11.22;93.09;100358.63;5071081;28;20174;-72
2022/05/12 05:29:25;;;;;;;1.23;0.60;;;;;;;11.26;92.62;100359.59;5070696;28;20532;-72
2022/05/12 05:31:50;;;;;;;0.87;0.47;;;;;;;11.31;92.82;100361.38;5070841;28;20232;-72
2022/05/12 05:34:16;;;;;;;0.30;0.27;;;;;;;11.35;92.71;100364.28;5071080;28;20174;-72
2022/05/12 05:36:44;;;;;;;0.03;0.03;;;;;;;11.35;91.45;100367.81;5070932;28;20259;-72
2022/05/12 05:39:19;;;;;;;0.37;0.33;;;;;;;11.35;90.21;100367.81;5069552;28;20253;-72
2022/05/12 05:41:45;;;;;;;0.30;0.30;;;;;;;11.40;90.72;100375.06;5071097;28;20163;-73
2022/05/12 05:44:10;;;;;;;2.43;0.53;;;;;;;11.47;91.35;100372.69;5070731;28;20218;-71
2022/05/12 05:46:36;;;;;;;0.80;0.80;;;;;;;11.53;91.84;100380.41;5070984;28;20205;-72
2022/05/12 05:49:01;;;;;;;0.40;0.33;;;;;;;11.52;90.45;100388.94;5070814;28;20689;-72
2022/05/12 05:54:10;;;;;;;2.30;0.30;;;;;;;11.67;91.60;100395.88;5071354;28;20178;-72
2022/05/12 05:56:35;;;;;;;0.73;0.30;;;;;;;11.64;89.93;100408.28;5070783;28;20561;-71
2022/05/12 05:59:01;;;;;;;0.43;0.43;;;;;;;11.63;88.28;100412.94;5070764;28;20255;-72
2022/05/12 06:01:26;;;;;;;2.03;0.20;;;;;;;11.62;88.79;100416.81;5070694;28;20171;-72
2022/05/12 06:03:52;;;;;;;1.60;0.60;;;;;;;11.72;89.16;100410.22;5070901;28;20178;-71
2022/05/12 06:06:18;;;;;;;1.83;0.40;;;;;;;11.78;89.21;100421.81;5070549;28;20202;-71
2022/05/12 06:08:46;;;;;;;1.30;0.30;;;;;;;11.81;88.37;100422.00;5070041;28;20193;-72
2022/05/12 06:11:11;;;;;;;2.17;0.60;;;;;;;11.85;87.54;100422.97;5069125;28;20181;-71
2022/05/12 06:13:37;;;;;;;0.93;0.60;;;;;;;11.90;87.21;100425.56;5070565;28;20178;-72
2022/05/12 06:16:03;;;;;;;4.80;0.60;;;;;;;11.90;86.74;100436.53;5070390;28;20201;-72
2022/05/12 06:18:29;;;;;;;1.07;0.60;;;;;;;11.95;86.88;100452.00;5070538;28;20181;-72
2022/05/12 06:20:54;;;;;;;4.07;0.70;;;;;;;12.01;87.44;100444.44;5070568;28;20253;-72
2022/05/12 06:23:19;;;;;;;7.10;1.00;;;;;;;11.98;86.72;100450.53;5070473;28;20179;-73
2022/05/12 06:25:45;;;;;;;5.50;1.20;;;;;;;12.02;86.26;100457.81;5070962;28;20220;-73
2022/05/12 06:28:11;;;;;;;0.50;0.43;;;;;;;12.08;86.54;100448.31;5070123;28;20174;-72
2022/05/12 06:30:38;;;;;;;0.43;0.40;;;;;;;12.10;85.99;100465.22;5070364;28;20177;-72
2022/05/12 06:33:04;;;;;;;0.97;0.70;;;;;;;12.12;86.21;100476.66;5070602;28;20638;-72
2022/05/12 06:35:30;;;;;;;0.93;0.57;;;;;;;12.11;84.61;100476.97;5070305;28;20657;-71
2022/05/12 06:37:55;;;;;;;1.87;0.60;;;;;;;12.21;85.46;100484.88;5070190;28;20172;-72
2022/05/12 06:40:22;;;;;;;1.27;0.77;;;;;;;12.34;86.71;100485.84;5070428;28;20258;-71
2022/05/12 06:42:51;;;;;;;1.00;0.57;;;;;;;12.40;84.34;100493.59;5070589;28;20183;-71
2022/05/12 06:45:19;;;;;;;2.40;0.70;;;;;;;12.41;83.97;100499.88;5070609;28;20266;-72
2022/05/12 06:47:48;;;;;;;0.30;0.30;;;;;;;12.49;85.16;100505.38;5070085;28;20273;-72
2022/05/12 06:50:16;;;;;;;2.30;0.73;;;;;;;12.51;84.32;100499.56;5070685;28;20189;-76
2022/05/12 06:52:43;;;;;;;1.73;0.93;;;;;;;12.56;84.06;100502.13;5070118;28;20221;-72
2022/05/12 06:55:08;;;;;;;0.60;0.60;;;;;;;12.60;83.75;100499.56;5070249;28;20177;-71
2022/05/12 06:57:34;;;;;;;0.67;0.60;;;;;;;12.71;83.17;100511.78;5070046;28;20179;-71
2022/05/12 06:59:59;;;;;;;0.83;0.63;;;;;;;12.69;82.45;100506.63;5070226;28;20176;-71
2022/05/12 07:02:25;;;;;;;0.43;0.43;;;;;;;12.68;81.81;100517.94;5070078;28;20175;-72
2022/05/12 07:04:52;;;;;;;0.87;0.40;;;;;;;12.77;82.02;100518.72;5070160;28;20167;-71
2022/05/12 07:07:19;;;;;;;1.50;1.33;;;;;;;12.73;80.43;100515.84;5070019;28;20309;-72
2022/05/12 07:09:44;;;;;;;1.73;1.13;;;;;;;12.81;81.45;100523.22;5070179;28;20179;-70
2022/05/12 07:12:12;;;;;;;3.03;1.10;;;;;;;12.89;80.03;100535.34;5069847;28;20177;-72
2022/05/12 07:14:38;;;;;;;2.20;1.10;;;;;;;13.00;80.41;100538.53;5068595;28;20180;-71
2022/05/12 07:17:03;;;;;;;4.87;1.37;;;;;;;13.12;81.14;100535.94;5069546;28;20692;-71
2022/05/12 07:19:31;;;;;;;1.60;1.17;;;;;;;13.03;81.08;100551.63;5069849;28;20741;-71
2022/05/12 07:27:25;;;;;;;1.27;0.83;;;;;;;13.16;79.95;100555.28;5073496;28;20253;-71
2022/05/12 07:29:51;;;;;;;2.63;1.23;;;;;;;13.21;79.02;100558.72;5073102;28;20171;-71
2022/05/12 07:32:16;;;;;;;3.90;1.57;;;;;;;13.17;78.77;100557.72;5073403;28;20622;-73
2022/05/12 07:34:42;;;;;;;0.70;0.70;;;;;;;13.21;79.41;100558.72;5073382;28;20180;-71
2022/05/12 07:37:07;;;;;;;0.40;0.40;;;;;;;13.36;78.68;100557.38;5073089;28;20223;-72
2022/05/12 07:39:33;;;;;;;1.00;1.00;;;;;;;13.51;77.51;100561.53;5073221;28;20179;-71
2022/05/12 07:42:00;;;;;;;0.77;0.60;;;;;;;13.61;76.77;100566.66;5073097;28;20182;-71
2022/05/12 07:44:32;;;;;;;2.67;0.90;;;;;;;13.62;76.92;100571.81;5073042;28;20190;-71
2022/05/12 07:47:00;;;;;;;0.80;0.80;;;;;;;13.73;77.01;100575.00;5072839;28;20182;-71
2022/05/12 07:49:28;;;;;;;3.20;1.10;;;;;;;13.64;77.41;100571.50;5072797;28;20626;-71
2022/05/12 07:51:55;;;;;;;2.10;0.93;;;;;;;13.73;78.35;100576.94;5072779;28;20214;-72
2022/05/12 07:54:21;;;;;;;0.60;0.60;;;;;;;13.83;77.33;100582.06;5072691;28;20632;-71
2022/05/12 07:56:46;;;;;;;1.90;1.00;;;;;;;13.88;77.07;100587.38;5072357;28;20259;-71
2022/05/12 07:59:11;;;;;;;0.70;0.60;;;;;;;14.12;76.45;100598.56;5072346;28;20187;-71
2022/05/12 08:01:38;;;;;;;3.03;0.50;;;;;;;14.20;75.48;100600.50;5072494;28;20179;-71
2022/05/12 08:04:04;;;;;;;2.50;1.10;;;;;;;14.12;76.33;100598.56;5072395;28;20254;-71
2022/05/12 08:06:31;;;;;;;1.47;0.60;;;;;;;14.15;76.53;100602.59;5072486;28;20249;-72
2022/05/12 08:08:56;;;;;;;2.37;1.07;;;;;;;14.06;75.52;100596.38;5072234;28;20171;-71
2022/05/12 08:11:23;;;;;;;1.43;1.33;;;;;;;13.98;74.70;100603.50;5072316;28;20189;-72
2022/05/12 08:13:48;;;;;;;2.23;1.10;;;;;;;14.07;74.49;100609.75;5072191;28;20167;-72
2022/05/12 08:16:16;;;;;;;2.77;1.07;;;;;;;14.29;74.74;100606.72;5072046;28;20689;-72
2022/05/12 08:18:44;;;;;;;1.60;0.70;;;;;;;14.29;73.24;100614.97;5071847;28;20658;-71
2022/05/12 08:21:09;;;;;;;1.20;0.93;;;;;;;14.16;72.83;100609.72;5072042;28;20171;-71
2022/05/12 08:23:35;;;;;;;0.90;0.70;;;;;;;14.09;74.77;100610.25;5073640;28;20586;-71
2022/05/12 08:26:01;;;;;;;3.13;1.33;;;;;;;14.22;73.71;100622.13;5079222;28;20269;-71
2022/05/12 08:28:27;;;;;;;2.63;0.73;;;;;;;14.27;71.27;100620.00;5079423;28;20579;-71
2022/05/12 08:30:53;;;;;;;1.10;0.60;;;;;;;14.58;72.00;100624.38;5072165;28;20171;-71
2022/05/12 08:33:19;;;;;;;0.93;0.80;;;;;;;14.83;70.94;100622.56;5071716;28;20185;-72
2022/05/12 08:35:45;;;;;;;0.77;0.50;;;;;;;14.82;70.50;100620.97;5072461;28;20202;-71
2022/05/12 08:38:12;;;;;;;3.03;1.20;;;;;;;14.98;70.35;100618.41;5071905;28;20198;-71
2022/05/12 08:41:03;;;;;;;0.67;0.57;;;;;;;14.55;69.90;100628.59;5071961;28;20267;-71
2022/05/12 08:43:53;;;;;;;1.67;0.90;;;;;;;14.56;70.46;100613.72;5071739;28;20190;-71
2022/05/12 08:46:25;;;;;;;1.00;0.80;;;;;;;14.80;69.16;100623.25;5056418;28;20212;-71
2022/05/12 08:49:04;;;;;;;2.30;1.20;;;;;;;14.83;69.77;100626.13;5068173;28;20193;-71
2022/05/12 08:51:34;;;;;;;2.23;0.60;;;;;;;14.96;70.07;100632.50;5065113;28;20235;-70
2022/05/12 08:54:03;;;;;;;0.43;0.43;;;;;;;14.81;68.14;100633.13;5072272;28;20531;-70
2022/05/12 08:56:35;;;;;;;1.47;0.50;;;;;;;14.70;68.94;100629.94;5071811;28;20251;-70
2022/05/12 08:59:04;;;;;;;1.37;0.40;;;;;;;14.58;68.21;100627.91;5071705;28;20175;-71
2022/05/12 09:01:54;;;;;;;3.13;1.00;;;;;;;15.03;69.90;100631.97;5071780;28;20209;-71
2022/05/12 09:04:44;;;;;;;1.17;0.50;;;;;;;15.17;66.83;100638.78;5072592;28;20174;-72
2022/05/12 09:07:31;;;;;;;0.70;0.37;;;;;;;15.02;66.72;100635.84;5071114;28;20663;-72
2022/05/12 09:10:13;;;;;;;1.30;0.63;;;;;;;14.87;67.91;100635.31;5070415;28;20185;-71
2022/05/12 09:12:41;;;;;;;0.50;0.50;;;;;;;14.95;68.24;100635.59;5071141;28;20166;-71
2022/05/12 09:15:22;;;;;;;1.00;0.93;;;;;;;15.15;64.40;100648.53;5071183;28;20260;-71
2022/05/12 09:17:54;;;;;;;1.23;0.70;;;;;;;15.51;66.07;100641.56;5071074;28;20177;-71
2022/05/12 09:20:22;;;;;;;1.07;0.70;;;;;;;15.58;64.25;100647.31;5071240;28;20178;-71
2022/05/12 09:22:47;;;;;;;1.07;0.40;;;;;;;15.35;66.19;100635.91;5071338;28;20200;-72
2022/05/12 09:25:34;;;;;;;0.77;0.50;;;;;;;15.21;67.21;100638.94;5069621;28;20701;-71
2022/05/12 09:28:24;;;;;;;1.10;0.80;;;;;;;15.21;65.34;100644.44;5070515;28;20252;-71
2022/05/12 09:30:50;;;;;;;0.63;0.63;;;;;;;15.41;63.53;100646.34;5070255;28;20174;-71
2022/05/12 09:33:33;;;;;;;1.13;0.80;;;;;;;15.63;63.88;100649.91;5070742;28;20163;-71
2022/05/12 09:36:02;;;;;;;0.53;0.40;;;;;;;15.49;62.05;100639.16;5070628;28;20198;-72
2022/05/12 09:38:28;;;;;;;0.63;0.60;;;;;;;15.62;61.86;100637.25;5070249;28;20236;-71
2022/05/12 09:40:55;;;;;;;0.67;0.30;;;;;;;15.69;60.29;100638.31;5070821;28;20555;-71
2022/05/12 09:43:31;;;;;;;0.50;0.40;;;;;;;15.82;60.18;100641.09;5069869;28;20186;-72
2022/05/12 09:46:17;;;;;;;1.13;1.00;;;;;;;15.96;60.52;100641.59;5070484;28;20205;-71
2022/05/12 09:48:45;;;;;;;0.20;0.20;;;;;;;16.08;60.82;100640.78;5070504;28;20630;-72
2022/05/12 09:51:13;;;;;;;0.30;0.30;;;;;;;16.19;60.96;100633.66;5070757;28;20566;-71
2022/05/12 09:53:38;;;;;;;0.47;0.37;;;;;;;16.27;62.66;100635.50;5070448;28;20182;-72
2022/05/12 09:56:07;;;;;;;0.60;0.43;;;;;;;16.32;60.77;100632.50;5070294;28;20252;-72
2022/05/12 09:58:39;;;;;;;1.30;0.80;;;;;;;16.37;61.44;100629.53;5070146;28;20189;-71
2022/05/12 10:01:10;;;;;;;1.70;0.50;;;;;;;16.24;58.76;100636.22;5070380;28;20179;-71
2022/05/12 10:09:24;;;;;;;3.27;1.00;;;;;;;16.32;59.02;100632.50;5070132;28;20181;-72
2022/05/12 10:12:15;;;;;;;1.13;0.60;;;;;;;16.48;56.64;100636.16;5064567;28;20217;-72
2022/05/12 10:15:03;;;;;;;0.43;0.30;;;;;;;16.70;56.96;100643.19;5065822;28;20655;-72
2022/05/12 10:17:38;;;;;;;0.63;0.50;;;;;;;16.45;56.83;100642.38;5064194;28;20199;-72
2022/05/12 10:20:10;;;;;;;1.43;0.60;;;;;;;16.41;58.61;100640.69;5070307;28;20183;-72
2022/05/12 10:22:40;;;;;;;0.80;0.40;;;;;;;16.40;59.48;100639.06;5070508;28;20644;-72
2022/05/12 10:25:29;;;;;;;2.73;0.60;;;;;;;16.72;59.42;100648.38;5070536;28;20175;-72
2022/05/12 10:28:03;;;;;;;1.97;0.63;;;;;;;16.58;59.76;100643.97;5070104;28;20182;-72
2022/05/12 10:30:42;;;;;;;2.00;0.80;;;;;;;16.46;58.85;100646.75;5070052;28;20657;-72
2022/05/12 10:33:36;;;;;;;0.70;0.50;;;;;;;16.19;56.09;100639.16;5070299;28;20167;-72
2022/05/12 10:36:28;;;;;;;0.97;0.73;;;;;;;16.12;58.05;100639.75;5069972;28;20301;-72
2022/05/12 10:39:12;;;;;;;1.50;0.57;;;;;;;16.59;56.29;100640.06;5059196;28;20816;-72
2022/05/12 10:42:00;;;;;;;1.03;0.60;;;;;;;16.94;55.58;100653.38;5070723;28;20217;-72
2022/05/12 10:44:54;;;;;;;1.33;0.50;;;;;;;17.14;55.73;100646.88;5070111;28;20187;-72
2022/05/12 10:47:41;;;;;;;1.37;0.97;;;;;;;17.17;54.69;100659.16;5032363;28;20203;-72
2022/05/12 10:50:25;;;;;;;0.40;0.40;;;;;;;17.30;54.18;100632.31;5070181;28;20273;-71
2022/05/12 10:52:59;;;;;;;1.07;0.43;;;;;;;17.19;51.94;100641.09;5070121;28;20186;-71
2022/05/12 10:55:39;;;;;;;1.03;0.63;;;;;;;17.49;53.96;100647.06;5071542;28;20666;-72
2022/05/12 10:58:19;;;;;;;0.23;0.23;;;;;;;17.49;52.85;100646.25;5073525;28;20224;-72
2022/05/12 11:00:55;;;;;;;0.57;0.57;;;;;;;17.61;52.45;100640.66;5074059;28;20738;-71
2022/05/12 11:03:27;;;;;;;1.80;0.60;;;;;;;17.80;51.13;100640.03;5073887;28;20185;-72
2022/05/12 11:05:58;;;;;;;0.93;0.60;;;;;;;17.87;52.08;100636.63;5073682;28;20179;-72
2022/05/12 11:08:34;;;;;;;0.60;0.40;;;;;;;17.85;52.18;100639.75;5073571;28;20182;-71
2022/05/12 11:11:10;;;;;;;0.30;0.30;;;;;;;17.48;52.88;100642.69;5073643;28;20173;-71
2022/05/12 11:13:54;;;;;;;0.40;0.40;;;;;;;17.45;53.16;100645.34;5073446;28;20197;-71
2022/05/12 11:16:26;;;;;;;1.00;0.50;;;;;;;17.17;51.72;100648.13;5073106;28;20412;-72
2022/05/12 11:19:21;;;;;;;1.40;1.30;;;;;;;16.82;52.14;100654.22;5073373;28;20528;-72
2022/05/12 11:22:25;;;;;;;1.90;0.60;;;;;;;17.03;53.65;100640.22;5072606;28;20622;-72
2022/05/12 11:24:56;;;;;;;1.70;0.70;;;;;;;17.44;55.37;100638.22;5056768;28;20195;-72
2022/05/12 11:27:39;;;;;;;0.63;0.30;;;;;;;17.80;53.13;100637.28;5072991;28;20186;-72
2022/05/12 11:30:20;;;;;;;0.87;0.50;;;;;;;18.14;51.37;100630.22;5072910;28;20174;-71
2022/05/12 11:32:51;;;;;;;1.00;0.30;;;;;;;18.26;48.52;100632.09;5071830;28;20170;-72
2022/05/12 11:35:25;;;;;;;0.90;0.53;;;;;;;18.03;48.51;100629.16;5072893;28;20198;-72
2022/05/12 11:38:06;;;;;;;0.93;0.43;;;;;;;18.18;49.56;100628.34;5072685;28;20701;-72
2022/05/12 11:40:40;;;;;;;0.43;0.40;;;;;;;18.13;48.22;100629.41;5073115;28;20174;-72
2022/05/12 11:46:39;;;;;;;1.60;0.50;;;;;;;18.59;47.30;100621.41;5072844;28;20304;-72
2022/05/12 11:49:28;;;;;;;1.10;0.60;;;;;;;18.72;48.01;100624.88;5072868;28;20259;-72
2022/05/12 11:52:30;;;;;;;0.73;0.40;;;;;;;18.59;46.43;100631.66;5072926;28;20348;-72
2022/05/12 11:55:04;;;;;;;0.70;0.60;;;;;;;18.37;47.25;100619.28;5072858;28;20684;-72